sensor_id;sensor_type;location;lat;lon;timestamp;temperature;humidity
70166;SHT30;57541;47.408;18.822;2022-12-29T00:00:25;0.84;95.18
70166;SHT30;57541;47.408;18.822;2022-12-29T00:00:59;0.88;95.28
70166;SHT30;57541;47.408;18.822;2022-12-29T00:01:31;0.88;95.24
70166;SHT30;57541;47.408;18.822;2022-12-29T00:02:03;0.90;95.19
70166;SHT30;57541;47.408;18.822;2022-12-29T00:02:35;0.87;95.06
70166;SHT30;57541;47.408;18.822;2022-12-29T00:03:06;0.88;95.14
70166;SHT30;57541;47.408;18.822;2022-12-29T00:03:38;0.85;95.10
70166;SHT30;57541;47.408;18.822;2022-12-29T00:04:12;0.85;95.23
70166;SHT30;57541;47.408;18.822;2022-12-29T00:04:45;0.83;95.25
70166;SHT30;57541;47.408;18.822;2022-12-29T00:05:17;0.84;95.39
70166;SHT30;57541;47.408;18.822;2022-12-29T00:05:54;0.91;95.26
70166;SHT30;57541;47.408;18.822;2022-12-29T00:06:27;0.90;95.10
70166;SHT30;57541;47.408;18.822;2022-12-29T00:06:58;0.91;95.03
70166;SHT30;57541;47.408;18.822;2022-12-29T00:07:30;0.91;95.06
70166;SHT30;57541;47.408;18.822;2022-12-29T00:08:02;0.88;95.12
70166;SHT30;57541;47.408;18.822;2022-12-29T00:08:33;0.90;95.07
70166;SHT30;57541;47.408;18.822;2022-12-29T00:09:12;0.87;95.12
70166;SHT30;57541;47.408;18.822;2022-12-29T00:09:44;0.83;95.16
70166;SHT30;57541;47.408;18.822;2022-12-29T00:10:16;0.87;95.14
70166;SHT30;57541;47.408;18.822;2022-12-29T00:10:47;0.83;95.14
70166;SHT30;57541;47.408;18.822;2022-12-29T00:11:24;0.80;95.16
70166;SHT30;57541;47.408;18.822;2022-12-29T00:11:56;0.76;95.26
70166;SHT30;57541;47.408;18.822;2022-12-29T00:12:28;0.79;95.38
70166;SHT30;57541;47.408;18.822;2022-12-29T00:13:20;0.79;95.33
70166;SHT30;57541;47.408;18.822;2022-12-29T00:14:11;0.80;95.36
70166;SHT30;57541;47.408;18.822;2022-12-29T00:15:01;0.80;95.40
70166;SHT30;57541;47.408;18.822;2022-12-29T00:15:52;0.81;95.24
70166;SHT30;57541;47.408;18.822;2022-12-29T00:16:24;0.79;95.27
70166;SHT30;57541;47.408;18.822;2022-12-29T00:16:56;0.80;95.24
70166;SHT30;57541;47.408;18.822;2022-12-29T00:17:28;0.76;95.26
70166;SHT30;57541;47.408;18.822;2022-12-29T00:17:59;0.76;95.34
70166;SHT30;57541;47.408;18.822;2022-12-29T00:18:31;0.73;95.40
70166;SHT30;57541;47.408;18.822;2022-12-29T00:19:04;0.74;95.50
70166;SHT30;57541;47.408;18.822;2022-12-29T00:19:37;0.74;95.52
70166;SHT30;57541;47.408;18.822;2022-12-29T00:20:27;0.76;95.50
70166;SHT30;57541;47.408;18.822;2022-12-29T00:21:19;0.73;95.48
70166;SHT30;57541;47.408;18.822;2022-12-29T00:22:11;0.79;95.48
70166;SHT30;57541;47.408;18.822;2022-12-29T00:23:02;0.77;95.30
70166;SHT30;57541;47.408;18.822;2022-12-29T00:23:51;0.73;95.46
70166;SHT30;57541;47.408;18.822;2022-12-29T00:24:58;0.72;95.46
70166;SHT30;57541;47.408;18.822;2022-12-29T00:25:35;0.74;95.46
70166;SHT30;57541;47.408;18.822;2022-12-29T00:26:26;0.77;95.44
70166;SHT30;57541;47.408;18.822;2022-12-29T00:27:16;0.74;95.38
70166;SHT30;57541;47.408;18.822;2022-12-29T00:28:08;0.70;95.51
70166;SHT30;57541;47.408;18.822;2022-12-29T00:28:59;0.70;95.49
70166;SHT30;57541;47.408;18.822;2022-12-29T00:29:49;0.73;95.56
70166;SHT30;57541;47.408;18.822;2022-12-29T00:30:40;0.67;95.58
70166;SHT30;57541;47.408;18.822;2022-12-29T00:31:30;0.67;95.66
70166;SHT30;57541;47.408;18.822;2022-12-29T00:32:20;0.70;95.62
70166;SHT30;57541;47.408;18.822;2022-12-29T00:33:17;0.69;95.47
70166;SHT30;57541;47.408;18.822;2022-12-29T00:34:10;0.70;95.45
70166;SHT30;57541;47.408;18.822;2022-12-29T00:35:00;0.69;95.59
70166;SHT30;57541;47.408;18.822;2022-12-29T00:35:50;0.70;95.59
70166;SHT30;57541;47.408;18.822;2022-12-29T00:36:29;0.67;95.57
70166;SHT30;57541;47.408;18.822;2022-12-29T00:37:03;0.69;95.63
70166;SHT30;57541;47.408;18.822;2022-12-29T00:37:40;0.57;95.74
70166;SHT30;57541;47.408;18.822;2022-12-29T00:38:35;0.63;95.73
70166;SHT30;57541;47.408;18.822;2022-12-29T00:39:26;0.66;95.65
70166;SHT30;57541;47.408;18.822;2022-12-29T00:40:17;0.67;95.64
70166;SHT30;57541;47.408;18.822;2022-12-29T00:41:07;0.70;95.56
70166;SHT30;57541;47.408;18.822;2022-12-29T00:42:05;0.72;95.45
70166;SHT30;57541;47.408;18.822;2022-12-29T00:42:51;0.72;95.39
70166;SHT30;57541;47.408;18.822;2022-12-29T00:43:41;0.70;95.51
70166;SHT30;57541;47.408;18.822;2022-12-29T00:44:31;0.73;95.39
70166;SHT30;57541;47.408;18.822;2022-12-29T00:45:04;0.69;95.43
70166;SHT30;57541;47.408;18.822;2022-12-29T00:45:36;0.67;95.51
70166;SHT30;57541;47.408;18.822;2022-12-29T00:46:08;0.70;95.53
70166;SHT30;57541;47.408;18.822;2022-12-29T00:46:46;0.69;95.52
70166;SHT30;57541;47.408;18.822;2022-12-29T00:47:18;0.69;95.40
70166;SHT30;57541;47.408;18.822;2022-12-29T00:47:49;0.67;95.41
70166;SHT30;57541;47.408;18.822;2022-12-29T00:48:21;0.70;95.49
70166;SHT30;57541;47.408;18.822;2022-12-29T00:49:13;0.74;95.43
70166;SHT30;57541;47.408;18.822;2022-12-29T00:50:04;0.70;95.41
70166;SHT30;57541;47.408;18.822;2022-12-29T00:50:35;0.70;95.31
70166;SHT30;57541;47.408;18.822;2022-12-29T00:51:07;0.66;95.48
70166;SHT30;57541;47.408;18.822;2022-12-29T00:51:39;0.66;95.51
70166;SHT30;57541;47.408;18.822;2022-12-29T00:52:12;0.66;95.52
70166;SHT30;57541;47.408;18.822;2022-12-29T00:52:44;0.67;95.57
70166;SHT30;57541;47.408;18.822;2022-12-29T00:53:15;0.67;95.57
70166;SHT30;57541;47.408;18.822;2022-12-29T00:53:47;0.67;95.54
70166;SHT30;57541;47.408;18.822;2022-12-29T00:54:19;0.66;95.60
70166;SHT30;57541;47.408;18.822;2022-12-29T00:54:51;0.67;95.59
70166;SHT30;57541;47.408;18.822;2022-12-29T00:55:23;0.72;95.55
70166;SHT30;57541;47.408;18.822;2022-12-29T00:55:54;0.72;95.49
70166;SHT30;57541;47.408;18.822;2022-12-29T00:56:26;0.72;95.41
70166;SHT30;57541;47.408;18.822;2022-12-29T00:56:57;0.69;95.41
70166;SHT30;57541;47.408;18.822;2022-12-29T00:57:29;0.72;95.51
70166;SHT30;57541;47.408;18.822;2022-12-29T00:58:00;0.72;95.46
70166;SHT30;57541;47.408;18.822;2022-12-29T00:58:32;0.76;95.36
70166;SHT30;57541;47.408;18.822;2022-12-29T00:59:06;0.73;95.35
70166;SHT30;57541;47.408;18.822;2022-12-29T00:59:39;0.74;95.32
70166;SHT30;57541;47.408;18.822;2022-12-29T01:00:12;0.73;95.39
70166;SHT30;57541;47.408;18.822;2022-12-29T01:00:44;0.74;95.31
70166;SHT30;57541;47.408;18.822;2022-12-29T01:01:16;0.76;95.35
70166;SHT30;57541;47.408;18.822;2022-12-29T01:01:48;0.69;95.29
70166;SHT30;57541;47.408;18.822;2022-12-29T01:02:20;0.67;95.41
70166;SHT30;57541;47.408;18.822;2022-12-29T01:02:52;0.72;95.50
70166;SHT30;57541;47.408;18.822;2022-12-29T01:03:23;0.70;95.45
70166;SHT30;57541;47.408;18.822;2022-12-29T01:03:55;0.73;95.43
70166;SHT30;57541;47.408;18.822;2022-12-29T01:04:34;0.77;95.29
70166;SHT30;57541;47.408;18.822;2022-12-29T01:05:06;0.73;95.23
70166;SHT30;57541;47.408;18.822;2022-12-29T01:05:37;0.73;95.22
70166;SHT30;57541;47.408;18.822;2022-12-29T01:06:10;0.70;95.35
70166;SHT30;57541;47.408;18.822;2022-12-29T01:06:42;0.74;95.43
70166;SHT30;57541;47.408;18.822;2022-12-29T01:07:13;0.76;95.26
70166;SHT30;57541;47.408;18.822;2022-12-29T01:07:45;0.79;95.18
70166;SHT30;57541;47.408;18.822;2022-12-29T01:08:17;0.76;95.23
70166;SHT30;57541;47.408;18.822;2022-12-29T01:08:48;0.72;95.28
70166;SHT30;57541;47.408;18.822;2022-12-29T01:09:43;0.73;95.36
70166;SHT30;57541;47.408;18.822;2022-12-29T01:10:33;0.73;95.30
70166;SHT30;57541;47.408;18.822;2022-12-29T01:11:06;0.73;95.36
70166;SHT30;57541;47.408;18.822;2022-12-29T01:11:39;0.72;95.39
70166;SHT30;57541;47.408;18.822;2022-12-29T01:12:11;0.73;95.46
70166;SHT30;57541;47.408;18.822;2022-12-29T01:12:43;0.73;95.38
70166;SHT30;57541;47.408;18.822;2022-12-29T01:13:16;0.73;95.38
70166;SHT30;57541;47.408;18.822;2022-12-29T01:13:48;0.73;95.33
70166;SHT30;57541;47.408;18.822;2022-12-29T01:14:20;0.70;95.41
70166;SHT30;57541;47.408;18.822;2022-12-29T01:14:52;0.74;95.41
70166;SHT30;57541;47.408;18.822;2022-12-29T01:15:24;0.76;95.34
70166;SHT30;57541;47.408;18.822;2022-12-29T01:15:56;0.74;95.35
70166;SHT30;57541;47.408;18.822;2022-12-29T01:16:29;0.77;95.36
70166;SHT30;57541;47.408;18.822;2022-12-29T01:17:00;0.79;95.29
70166;SHT30;57541;47.408;18.822;2022-12-29T01:17:32;0.76;95.23
70166;SHT30;57541;47.408;18.822;2022-12-29T01:18:04;0.77;95.22
70166;SHT30;57541;47.408;18.822;2022-12-29T01:18:36;0.72;95.27
70166;SHT30;57541;47.408;18.822;2022-12-29T01:19:08;0.72;95.28
70166;SHT30;57541;47.408;18.822;2022-12-29T01:19:40;0.70;95.40
70166;SHT30;57541;47.408;18.822;2022-12-29T01:20:12;0.72;95.39
70166;SHT30;57541;47.408;18.822;2022-12-29T01:20:44;0.72;95.42
70166;SHT30;57541;47.408;18.822;2022-12-29T01:21:16;0.70;95.41
70166;SHT30;57541;47.408;18.822;2022-12-29T01:21:48;0.70;95.32
70166;SHT30;57541;47.408;18.822;2022-12-29T01:22:20;0.73;95.39
70166;SHT30;57541;47.408;18.822;2022-12-29T01:22:52;0.72;95.37
70166;SHT30;57541;47.408;18.822;2022-12-29T01:23:23;0.70;95.51
70166;SHT30;57541;47.408;18.822;2022-12-29T01:23:55;0.69;95.36
70166;SHT30;57541;47.408;18.822;2022-12-29T01:24:26;0.70;95.46
70166;SHT30;57541;47.408;18.822;2022-12-29T01:24:58;0.69;95.35
70166;SHT30;57541;47.408;18.822;2022-12-29T01:25:30;0.70;95.40
70166;SHT30;57541;47.408;18.822;2022-12-29T01:26:11;0.72;95.38
70166;SHT30;57541;47.408;18.822;2022-12-29T01:26:44;0.72;95.41
70166;SHT30;57541;47.408;18.822;2022-12-29T01:27:16;0.73;95.36
70166;SHT30;57541;47.408;18.822;2022-12-29T01:27:48;0.70;95.21
70166;SHT30;57541;47.408;18.822;2022-12-29T01:28:20;0.69;95.30
70166;SHT30;57541;47.408;18.822;2022-12-29T01:28:56;0.69;95.44
70166;SHT30;57541;47.408;18.822;2022-12-29T01:29:28;0.70;95.42
70166;SHT30;57541;47.408;18.822;2022-12-29T01:29:59;0.69;95.46
70166;SHT30;57541;47.408;18.822;2022-12-29T01:30:32;0.69;95.42
70166;SHT30;57541;47.408;18.822;2022-12-29T01:31:03;0.69;95.40
70166;SHT30;57541;47.408;18.822;2022-12-29T01:31:35;0.67;95.34
70166;SHT30;57541;47.408;18.822;2022-12-29T01:32:07;0.64;95.38
70166;SHT30;57541;47.408;18.822;2022-12-29T01:32:39;0.69;95.41
70166;SHT30;57541;47.408;18.822;2022-12-29T01:33:10;0.69;95.34
70166;SHT30;57541;47.408;18.822;2022-12-29T01:33:43;0.67;95.26
70166;SHT30;57541;47.408;18.822;2022-12-29T01:34:15;0.63;95.33
70166;SHT30;57541;47.408;18.822;2022-12-29T01:34:46;0.60;95.27
70166;SHT30;57541;47.408;18.822;2022-12-29T01:35:18;0.56;95.27
70166;SHT30;57541;47.408;18.822;2022-12-29T01:35:49;0.56;95.34
70166;SHT30;57541;47.408;18.822;2022-12-29T01:36:21;0.52;95.53
70166;SHT30;57541;47.408;18.822;2022-12-29T01:36:53;0.55;95.81
70166;SHT30;57541;47.408;18.822;2022-12-29T01:37:24;0.60;95.75
70166;SHT30;57541;47.408;18.822;2022-12-29T01:37:56;0.60;95.55
70166;SHT30;57541;47.408;18.822;2022-12-29T01:38:27;0.52;95.29
70166;SHT30;57541;47.408;18.822;2022-12-29T01:38:59;0.52;95.56
70166;SHT30;57541;47.408;18.822;2022-12-29T01:39:31;0.55;95.74
70166;SHT30;57541;47.408;18.822;2022-12-29T01:40:03;0.57;95.78
70166;SHT30;57541;47.408;18.822;2022-12-29T01:40:43;0.59;95.89
70166;SHT30;57541;47.408;18.822;2022-12-29T01:41:15;0.66;95.80
70166;SHT30;57541;47.408;18.822;2022-12-29T01:41:48;0.69;95.78
70166;SHT30;57541;47.408;18.822;2022-12-29T01:42:24;0.69;95.65
70166;SHT30;57541;47.408;18.822;2022-12-29T01:42:56;0.69;95.47
70166;SHT30;57541;47.408;18.822;2022-12-29T01:43:46;0.64;95.45
70166;SHT30;57541;47.408;18.822;2022-12-29T01:45:26;0.64;95.54
70166;SHT30;57541;47.408;18.822;2022-12-29T01:45:58;0.60;95.53
70166;SHT30;57541;47.408;18.822;2022-12-29T01:46:34;0.59;95.53
70166;SHT30;57541;47.408;18.822;2022-12-29T01:47:08;0.60;95.53
70166;SHT30;57541;47.408;18.822;2022-12-29T01:47:43;0.62;95.62
70166;SHT30;57541;47.408;18.822;2022-12-29T01:48:16;0.60;95.67
70166;SHT30;57541;47.408;18.822;2022-12-29T01:48:50;0.60;95.62
70166;SHT30;57541;47.408;18.822;2022-12-29T01:49:26;0.56;95.38
70166;SHT30;57541;47.408;18.822;2022-12-29T01:50:02;0.55;95.54
70166;SHT30;57541;47.408;18.822;2022-12-29T01:50:39;0.50;95.71
70166;SHT30;57541;47.408;18.822;2022-12-29T01:51:11;0.52;95.77
70166;SHT30;57541;47.408;18.822;2022-12-29T01:52:16;0.52;95.53
70166;SHT30;57541;47.408;18.822;2022-12-29T01:53:00;0.48;95.68
70166;SHT30;57541;47.408;18.822;2022-12-29T01:53:33;0.46;95.62
70166;SHT30;57541;47.408;18.822;2022-12-29T01:54:12;0.41;95.57
70166;SHT30;57541;47.408;18.822;2022-12-29T01:54:49;0.38;95.78
70166;SHT30;57541;47.408;18.822;2022-12-29T01:55:24;0.43;95.91
70166;SHT30;57541;47.408;18.822;2022-12-29T01:56:00;0.45;95.91
70166;SHT30;57541;47.408;18.822;2022-12-29T01:56:33;0.42;95.78
70166;SHT30;57541;47.408;18.822;2022-12-29T01:57:08;0.41;95.99
70166;SHT30;57541;47.408;18.822;2022-12-29T01:57:44;0.41;96.08
70166;SHT30;57541;47.408;18.822;2022-12-29T01:58:20;0.43;96.08
70166;SHT30;57541;47.408;18.822;2022-12-29T01:59:01;0.41;95.88
70166;SHT30;57541;47.408;18.822;2022-12-29T01:59:42;0.38;95.69
70166;SHT30;57541;47.408;18.822;2022-12-29T02:00:14;0.32;95.78
70166;SHT30;57541;47.408;18.822;2022-12-29T02:01:10;0.29;96.07
70166;SHT30;57541;47.408;18.822;2022-12-29T02:01:42;0.28;96.11
70166;SHT30;57541;47.408;18.822;2022-12-29T02:02:13;0.30;96.05
70166;SHT30;57541;47.408;18.822;2022-12-29T02:02:49;0.32;96.11
70166;SHT30;57541;47.408;18.822;2022-12-29T02:03:24;0.32;95.83
70166;SHT30;57541;47.408;18.822;2022-12-29T02:03:58;0.28;95.84
70166;SHT30;57541;47.408;18.822;2022-12-29T02:04:31;0.26;96.07
70166;SHT30;57541;47.408;18.822;2022-12-29T02:05:11;0.25;95.80
70166;SHT30;57541;47.408;18.822;2022-12-29T02:05:53;0.19;95.92
70166;SHT30;57541;47.408;18.822;2022-12-29T02:06:31;0.22;96.06
70166;SHT30;57541;47.408;18.822;2022-12-29T02:07:08;0.16;96.05
70166;SHT30;57541;47.408;18.822;2022-12-29T02:07:41;0.14;96.01
70166;SHT30;57541;47.408;18.822;2022-12-29T02:08:13;0.14;96.17
70166;SHT30;57541;47.408;18.822;2022-12-29T02:08:46;0.12;96.34
70166;SHT30;57541;47.408;18.822;2022-12-29T02:09:19;0.14;96.39
70166;SHT30;57541;47.408;18.822;2022-12-29T02:09:51;0.11;96.25
70166;SHT30;57541;47.408;18.822;2022-12-29T02:10:26;0.08;96.35
70166;SHT30;57541;47.408;18.822;2022-12-29T02:11:00;0.08;96.38
70166;SHT30;57541;47.408;18.822;2022-12-29T02:11:32;0.05;96.44
70166;SHT30;57541;47.408;18.822;2022-12-29T02:12:04;0.04;96.49
70166;SHT30;57541;47.408;18.822;2022-12-29T02:12:36;0.04;96.78
70166;SHT30;57541;47.408;18.822;2022-12-29T02:13:07;0.05;96.83
70166;SHT30;57541;47.408;18.822;2022-12-29T02:13:39;0.09;96.74
70166;SHT30;57541;47.408;18.822;2022-12-29T02:14:12;0.09;96.97
70166;SHT30;57541;47.408;18.822;2022-12-29T02:14:45;0.12;96.72
70166;SHT30;57541;47.408;18.822;2022-12-29T02:15:17;0.14;96.41
70166;SHT30;57541;47.408;18.822;2022-12-29T02:20:32;-0.16;96.77
70166;SHT30;57541;47.408;18.822;2022-12-29T02:26:54;0.01;96.45
70166;SHT30;57541;47.408;18.822;2022-12-29T02:29:39;0.02;96.80
70166;SHT30;57541;47.408;18.822;2022-12-29T02:31:05;0.06;96.71
70166;SHT30;57541;47.408;18.822;2022-12-29T02:31:58;0.04;96.82
70166;SHT30;57541;47.408;18.822;2022-12-29T02:34:37;0.22;96.70
70166;SHT30;57541;47.408;18.822;2022-12-29T02:35:38;0.28;96.62
70166;SHT30;57541;47.408;18.822;2022-12-29T02:36:17;0.30;96.49
70166;SHT30;57541;47.408;18.822;2022-12-29T02:37:12;0.30;96.28
70166;SHT30;57541;47.408;18.822;2022-12-29T02:38:03;0.29;96.28
70166;SHT30;57541;47.408;18.822;2022-12-29T02:39:15;0.28;96.39
70166;SHT30;57541;47.408;18.822;2022-12-29T02:40:06;0.28;96.33
70166;SHT30;57541;47.408;18.822;2022-12-29T02:40:48;0.26;96.31
70166;SHT30;57541;47.408;18.822;2022-12-29T02:42:14;0.25;96.37
70166;SHT30;57541;47.408;18.822;2022-12-29T02:43:01;0.18;96.59
70166;SHT30;57541;47.408;18.822;2022-12-29T02:43:49;0.22;96.56
70166;SHT30;57541;47.408;18.822;2022-12-29T02:44:34;0.24;96.43
70166;SHT30;57541;47.408;18.822;2022-12-29T02:45:15;0.25;96.39
70166;SHT30;57541;47.408;18.822;2022-12-29T02:46:02;0.29;96.44
70166;SHT30;57541;47.408;18.822;2022-12-29T02:47:30;0.30;96.36
70166;SHT30;57541;47.408;18.822;2022-12-29T02:48:45;0.29;96.30
70166;SHT30;57541;47.408;18.822;2022-12-29T02:49:26;0.30;96.23
70166;SHT30;57541;47.408;18.822;2022-12-29T02:51:57;0.38;96.29
70166;SHT30;57541;47.408;18.822;2022-12-29T02:52:37;0.30;96.22
70166;SHT30;57541;47.408;18.822;2022-12-29T02:53:15;0.30;96.25
70166;SHT30;57541;47.408;18.822;2022-12-29T02:53:48;0.30;96.23
70166;SHT30;57541;47.408;18.822;2022-12-29T02:54:38;0.30;96.25
70166;SHT30;57541;47.408;18.822;2022-12-29T02:55:14;0.28;96.24
70166;SHT30;57541;47.408;18.822;2022-12-29T02:55:49;0.26;96.24
70166;SHT30;57541;47.408;18.822;2022-12-29T02:56:21;0.29;96.33
70166;SHT30;57541;47.408;18.822;2022-12-29T02:56:53;0.28;96.34
70166;SHT30;57541;47.408;18.822;2022-12-29T02:58:19;0.32;96.36
70166;SHT30;57541;47.408;18.822;2022-12-29T02:58:51;0.35;96.28
70166;SHT30;57541;47.408;18.822;2022-12-29T02:59:22;0.33;96.28
70166;SHT30;57541;47.408;18.822;2022-12-29T03:00:02;0.32;96.22
70166;SHT30;57541;47.408;18.822;2022-12-29T03:00:40;0.48;96.38
70166;SHT30;57541;47.408;18.822;2022-12-29T03:11:11;0.69;95.46
70166;SHT30;57541;47.408;18.822;2022-12-29T03:12:30;0.69;95.41
70166;SHT30;57541;47.408;18.822;2022-12-29T03:13:41;0.64;95.37
70166;SHT30;57541;47.408;18.822;2022-12-29T03:16:23;0.59;95.43
70166;SHT30;57541;47.408;18.822;2022-12-29T03:17:00;0.56;95.46
70166;SHT30;57541;47.408;18.822;2022-12-29T03:17:51;0.55;95.49
70166;SHT30;57541;47.408;18.822;2022-12-29T03:19:48;0.60;95.71
70166;SHT30;57541;47.408;18.822;2022-12-29T03:20:26;0.60;95.57
70166;SHT30;57541;47.408;18.822;2022-12-29T03:21:49;0.57;95.51
70166;SHT30;57541;47.408;18.822;2022-12-29T03:22:44;0.53;95.70
70166;SHT30;57541;47.408;18.822;2022-12-29T03:23:19;0.53;95.59
70166;SHT30;57541;47.408;18.822;2022-12-29T03:23:52;0.48;95.63
70166;SHT30;57541;47.408;18.822;2022-12-29T03:24:27;0.50;95.67
70166;SHT30;57541;47.408;18.822;2022-12-29T03:25:06;0.48;95.79
70166;SHT30;57541;47.408;18.822;2022-12-29T03:25:44;0.53;95.78
70166;SHT30;57541;47.408;18.822;2022-12-29T03:26:18;0.57;95.72
70166;SHT30;57541;47.408;18.822;2022-12-29T03:26:53;0.59;95.65
70166;SHT30;57541;47.408;18.822;2022-12-29T03:27:32;0.64;95.63
70166;SHT30;57541;47.408;18.822;2022-12-29T03:28:09;0.66;95.53
70166;SHT30;57541;47.408;18.822;2022-12-29T03:28:47;0.63;95.44
70166;SHT30;57541;47.408;18.822;2022-12-29T03:29:20;0.67;95.44
70166;SHT30;57541;47.408;18.822;2022-12-29T03:29:56;0.67;95.30
70166;SHT30;57541;47.408;18.822;2022-12-29T03:30:30;0.69;95.21
70166;SHT30;57541;47.408;18.822;2022-12-29T03:31:04;0.70;95.23
70166;SHT30;57541;47.408;18.822;2022-12-29T03:31:38;0.76;95.23
70166;SHT30;57541;47.408;18.822;2022-12-29T03:32:12;0.81;95.12
70166;SHT30;57541;47.408;18.822;2022-12-29T03:32:54;0.83;94.85
70166;SHT30;57541;47.408;18.822;2022-12-29T03:33:28;0.83;94.81
70166;SHT30;57541;47.408;18.822;2022-12-29T03:34:00;0.83;94.79
70166;SHT30;57541;47.408;18.822;2022-12-29T03:34:33;0.83;94.70
70166;SHT30;57541;47.408;18.822;2022-12-29T03:35:07;0.83;94.70
70166;SHT30;57541;47.408;18.822;2022-12-29T03:35:41;0.84;94.68
70166;SHT30;57541;47.408;18.822;2022-12-29T03:36:20;0.85;94.61
70166;SHT30;57541;47.408;18.822;2022-12-29T03:37:00;0.87;94.49
70166;SHT30;57541;47.408;18.822;2022-12-29T03:37:37;0.85;94.38
70166;SHT30;57541;47.408;18.822;2022-12-29T03:38:18;0.83;94.48
70166;SHT30;57541;47.408;18.822;2022-12-29T03:38:58;0.84;94.54
70166;SHT30;57541;47.408;18.822;2022-12-29T03:39:31;0.87;94.54
70166;SHT30;57541;47.408;18.822;2022-12-29T03:40:05;0.88;94.52
70166;SHT30;57541;47.408;18.822;2022-12-29T03:40:39;0.97;94.46
70166;SHT30;57541;47.408;18.822;2022-12-29T03:41:17;0.97;94.25
70166;SHT30;57541;47.408;18.822;2022-12-29T03:41:54;0.94;94.31
70166;SHT30;57541;47.408;18.822;2022-12-29T03:42:28;0.97;94.18
70166;SHT30;57541;47.408;18.822;2022-12-29T03:43:03;0.94;94.13
70166;SHT30;57541;47.408;18.822;2022-12-29T03:43:35;0.93;94.01
70166;SHT30;57541;47.408;18.822;2022-12-29T03:44:07;0.94;94.09
70166;SHT30;57541;47.408;18.822;2022-12-29T03:44:41;1.07;94.05
70166;SHT30;57541;47.408;18.822;2022-12-29T03:45:13;1.07;93.88
70166;SHT30;57541;47.408;18.822;2022-12-29T03:45:45;1.07;93.71
70166;SHT30;57541;47.408;18.822;2022-12-29T03:46:16;1.04;93.72
70166;SHT30;57541;47.408;18.822;2022-12-29T03:46:49;0.98;93.75
70166;SHT30;57541;47.408;18.822;2022-12-29T03:47:22;0.97;93.78
70166;SHT30;57541;47.408;18.822;2022-12-29T03:47:54;0.87;93.86
70166;SHT30;57541;47.408;18.822;2022-12-29T03:48:25;0.91;93.96
70166;SHT30;57541;47.408;18.822;2022-12-29T03:48:57;0.85;94.03
70166;SHT30;57541;47.408;18.822;2022-12-29T03:49:29;0.87;94.08
70166;SHT30;57541;47.408;18.822;2022-12-29T03:50:00;0.87;94.12
70166;SHT30;57541;47.408;18.822;2022-12-29T03:50:32;0.88;94.10
70166;SHT30;57541;47.408;18.822;2022-12-29T03:51:04;0.84;94.13
70166;SHT30;57541;47.408;18.822;2022-12-29T03:51:36;0.87;94.19
70166;SHT30;57541;47.408;18.822;2022-12-29T03:52:08;0.87;94.13
70166;SHT30;57541;47.408;18.822;2022-12-29T03:52:39;0.84;94.07
70166;SHT30;57541;47.408;18.822;2022-12-29T03:53:11;0.93;94.21
70166;SHT30;57541;47.408;18.822;2022-12-29T03:53:43;1.00;93.92
70166;SHT30;57541;47.408;18.822;2022-12-29T03:54:14;1.00;93.78
70166;SHT30;57541;47.408;18.822;2022-12-29T03:54:46;0.95;93.65
70166;SHT30;57541;47.408;18.822;2022-12-29T03:55:18;0.97;93.67
70166;SHT30;57541;47.408;18.822;2022-12-29T03:55:50;0.94;93.72
70166;SHT30;57541;47.408;18.822;2022-12-29T03:56:22;0.95;93.78
70166;SHT30;57541;47.408;18.822;2022-12-29T03:56:53;0.97;93.69
70166;SHT30;57541;47.408;18.822;2022-12-29T03:57:25;0.97;93.64
70166;SHT30;57541;47.408;18.822;2022-12-29T03:57:56;0.91;93.65
70166;SHT30;57541;47.408;18.822;2022-12-29T03:58:28;0.91;93.79
70166;SHT30;57541;47.408;18.822;2022-12-29T03:59:00;0.94;93.88
70166;SHT30;57541;47.408;18.822;2022-12-29T03:59:31;1.05;93.81
70166;SHT30;57541;47.408;18.822;2022-12-29T04:00:05;1.08;93.46
70166;SHT30;57541;47.408;18.822;2022-12-29T04:00:37;1.07;93.38
70166;SHT30;57541;47.408;18.822;2022-12-29T04:01:09;1.04;93.31
70166;SHT30;57541;47.408;18.822;2022-12-29T04:01:41;1.05;93.30
70166;SHT30;57541;47.408;18.822;2022-12-29T04:02:12;1.01;93.29
70166;SHT30;57541;47.408;18.822;2022-12-29T04:02:44;1.00;93.45
70166;SHT30;57541;47.408;18.822;2022-12-29T04:03:17;0.97;93.52
70166;SHT30;57541;47.408;18.822;2022-12-29T04:03:49;0.90;93.54
70166;SHT30;57541;47.408;18.822;2022-12-29T04:04:21;0.90;93.62
70166;SHT30;57541;47.408;18.822;2022-12-29T04:04:53;0.93;93.64
70166;SHT30;57541;47.408;18.822;2022-12-29T04:05:24;0.91;93.60
70166;SHT30;57541;47.408;18.822;2022-12-29T04:05:56;0.87;93.75
70166;SHT30;57541;47.408;18.822;2022-12-29T04:06:27;0.87;93.81
70166;SHT30;57541;47.408;18.822;2022-12-29T04:06:59;0.84;93.81
70166;SHT30;57541;47.408;18.822;2022-12-29T04:07:31;0.81;93.87
70166;SHT30;57541;47.408;18.822;2022-12-29T04:08:02;0.87;93.91
70166;SHT30;57541;47.408;18.822;2022-12-29T04:08:34;0.85;93.84
70166;SHT30;57541;47.408;18.822;2022-12-29T04:09:06;0.87;93.69
70166;SHT30;57541;47.408;18.822;2022-12-29T04:09:38;0.90;93.62
70166;SHT30;57541;47.408;18.822;2022-12-29T04:10:09;0.88;93.52
70166;SHT30;57541;47.408;18.822;2022-12-29T04:10:41;0.85;93.52
70166;SHT30;57541;47.408;18.822;2022-12-29T04:11:12;0.83;93.53
70166;SHT30;57541;47.408;18.822;2022-12-29T04:11:44;0.80;93.72
70166;SHT30;57541;47.408;18.822;2022-12-29T04:12:16;0.76;93.89
70166;SHT30;57541;47.408;18.822;2022-12-29T04:12:48;0.79;93.97
70166;SHT30;57541;47.408;18.822;2022-12-29T04:13:20;0.74;93.91
70166;SHT30;57541;47.408;18.822;2022-12-29T04:13:51;0.79;93.91
70166;SHT30;57541;47.408;18.822;2022-12-29T04:14:23;0.77;93.86
70166;SHT30;57541;47.408;18.822;2022-12-29T04:14:55;0.74;93.76
70166;SHT30;57541;47.408;18.822;2022-12-29T04:15:26;0.79;93.80
70166;SHT30;57541;47.408;18.822;2022-12-29T04:15:58;0.83;93.72
70166;SHT30;57541;47.408;18.822;2022-12-29T04:16:30;0.84;93.76
70166;SHT30;57541;47.408;18.822;2022-12-29T04:17:01;0.87;93.69
70166;SHT30;57541;47.408;18.822;2022-12-29T04:17:33;0.87;93.81
70166;SHT30;57541;47.408;18.822;2022-12-29T04:18:05;0.88;93.68
70166;SHT30;57541;47.408;18.822;2022-12-29T04:18:36;0.88;93.59
70166;SHT30;57541;47.408;18.822;2022-12-29T04:19:08;0.77;93.59
70166;SHT30;57541;47.408;18.822;2022-12-29T04:19:39;0.73;93.78
70166;SHT30;57541;47.408;18.822;2022-12-29T04:20:11;0.73;93.85
70166;SHT30;57541;47.408;18.822;2022-12-29T04:21:01;0.70;93.96
70166;SHT30;57541;47.408;18.822;2022-12-29T04:21:34;0.73;93.85
70166;SHT30;57541;47.408;18.822;2022-12-29T04:22:06;0.72;93.85
70166;SHT30;57541;47.408;18.822;2022-12-29T04:22:37;0.70;93.88
70166;SHT30;57541;47.408;18.822;2022-12-29T04:23:09;0.74;93.78
70166;SHT30;57541;47.408;18.822;2022-12-29T04:23:40;0.74;93.75
70166;SHT30;57541;47.408;18.822;2022-12-29T04:24:12;0.73;93.75